sensor_id;sensor_type;location;lat;lon;timestamp;P1;durP1;ratioP1;P2;durP2;ratioP2
59474;SDS011;45288;51.136;16.928;2023-05-10T00:00:53;48.58;;;23.95;;
59474;SDS011;45288;51.136;16.928;2023-05-10T00:03:26;90.00;;;81.80;;
59474;SDS011;45288;51.136;16.928;2023-05-10T00:06:18;103.57;;;95.50;;
59474;SDS011;45288;51.136;16.928;2023-05-10T00:08:51;111.78;;;103.38;;
59474;SDS011;45288;51.136;16.928;2023-05-10T00:11:43;124.47;;;114.80;;
59474;SDS011;45288;51.136;16.928;2023-05-10T00:14:16;141.30;;;129.60;;
59474;SDS011;45288;51.136;16.928;2023-05-10T00:17:09;141.47;;;130.70;;
59474;SDS011;45288;51.136;16.928;2023-05-10T00:19:42;351.85;;;328.27;;
59474;SDS011;45288;51.136;16.928;2023-05-10T00:22:34;207.23;;;192.75;;
59474;SDS011;45288;51.136;16.928;2023-05-10T00:25:07;180.15;;;167.70;;
59474;SDS011;45288;51.136;16.928;2023-05-10T00:27:59;207.77;;;194.15;;
59474;SDS011;45288;51.136;16.928;2023-05-10T00:30:40;276.00;;;258.08;;
59474;SDS011;45288;51.136;16.928;2023-05-10T00:33:25;253.50;;;236.70;;
59474;SDS011;45288;51.136;16.928;2023-05-10T00:36:05;278.95;;;261.02;;
59474;SDS011;45288;51.136;16.928;2023-05-10T00:38:50;307.05;;;286.23;;
59474;SDS011;45288;51.136;16.928;2023-05-10T00:41:30;281.60;;;263.23;;
59474;SDS011;45288;51.136;16.928;2023-05-10T00:44:16;234.15;;;218.80;;
59474;SDS011;45288;51.136;16.928;2023-05-10T00:46:57;215.73;;;201.13;;
59474;SDS011;45288;51.136;16.928;2023-05-10T00:49:43;137.70;;;127.47;;
59474;SDS011;45288;51.136;16.928;2023-05-10T00:52:22;41.22;;;21.75;;
59474;SDS011;45288;51.136;16.928;2023-05-10T00:55:08;37.33;;;14.20;;
59474;SDS011;45288;51.136;16.928;2023-05-10T00:57:48;40.33;;;14.50;;
59474;SDS011;45288;51.136;16.928;2023-05-10T01:00:34;43.22;;;24.45;;
59474;SDS011;45288;51.136;16.928;2023-05-10T01:03:14;35.25;;;14.50;;
59474;SDS011;45288;51.136;16.928;2023-05-10T01:05:59;36.90;;;14.17;;
59474;SDS011;45288;51.136;16.928;2023-05-10T01:08:39;45.45;;;13.68;;
59474;SDS011;45288;51.136;16.928;2023-05-10T01:11:24;37.95;;;13.18;;
59474;SDS011;45288;51.136;16.928;2023-05-10T01:14:04;37.28;;;14.77;;
59474;SDS011;45288;51.136;16.928;2023-05-10T01:16:49;49.95;;;23.85;;
59474;SDS011;45288;51.136;16.928;2023-05-10T01:19:29;54.80;;;19.27;;
59474;SDS011;45288;51.136;16.928;2023-05-10T01:22:25;39.47;;;14.30;;
59474;SDS011;45288;51.136;16.928;2023-05-10T01:25:16;36.80;;;16.63;;
59474;SDS011;45288;51.136;16.928;2023-05-10T01:31:08;41.60;;;25.27;;
59474;SDS011;45288;51.136;16.928;2023-05-10T01:34:12;58.53;;;47.58;;
59474;SDS011;45288;51.136;16.928;2023-05-10T01:36:56;142.80;;;132.83;;
59474;SDS011;45288;51.136;16.928;2023-05-10T01:39:47;129.87;;;120.37;;
59474;SDS011;45288;51.136;16.928;2023-05-10T01:42:30;148.93;;;137.57;;
59474;SDS011;45288;51.136;16.928;2023-05-10T01:45:22;231.70;;;216.95;;
59474;SDS011;45288;51.136;16.928;2023-05-10T01:48:10;153.73;;;142.88;;
59474;SDS011;45288;51.136;16.928;2023-05-10T01:50:55;75.57;;;67.28;;
59474;SDS011;45288;51.136;16.928;2023-05-10T01:53:35;54.05;;;29.48;;
59474;SDS011;45288;51.136;16.928;2023-05-10T01:56:22;49.72;;;33.15;;
59474;SDS011;45288;51.136;16.928;2023-05-10T01:59:11;50.08;;;18.35;;
59474;SDS011;45288;51.136;16.928;2023-05-10T02:02:10;37.17;;;15.85;;
59474;SDS011;45288;51.136;16.928;2023-05-10T02:04:44;56.95;;;25.50;;
59474;SDS011;45288;51.136;16.928;2023-05-10T02:07:37;53.33;;;17.43;;
59474;SDS011;45288;51.136;16.928;2023-05-10T02:10:10;42.28;;;15.32;;
59474;SDS011;45288;51.136;16.928;2023-05-10T02:13:03;41.20;;;14.00;;
59474;SDS011;45288;51.136;16.928;2023-05-10T02:15:38;47.30;;;14.85;;
59474;SDS011;45288;51.136;16.928;2023-05-10T02:18:33;43.35;;;17.42;;
59474;SDS011;45288;51.136;16.928;2023-05-10T02:21:26;51.75;;;19.23;;
59474;SDS011;45288;51.136;16.928;2023-05-10T02:24:00;43.20;;;15.77;;
59474;SDS011;45288;51.136;16.928;2023-05-10T02:26:54;49.03;;;19.00;;
59474;SDS011;45288;51.136;16.928;2023-05-10T02:29:27;48.63;;;20.60;;
59474;SDS011;45288;51.136;16.928;2023-05-10T02:32:21;46.65;;;18.90;;
59474;SDS011;45288;51.136;16.928;2023-05-10T02:34:55;49.10;;;25.67;;
59474;SDS011;45288;51.136;16.928;2023-05-10T02:37:49;159.80;;;147.68;;
59474;SDS011;45288;51.136;16.928;2023-05-10T02:40:22;122.00;;;111.90;;
59474;SDS011;45288;51.136;16.928;2023-05-10T02:43:15;97.75;;;89.22;;
59474;SDS011;45288;51.136;16.928;2023-05-10T02:45:48;70.17;;;53.97;;
59474;SDS011;45288;51.136;16.928;2023-05-10T02:48:40;66.45;;;59.58;;
59474;SDS011;45288;51.136;16.928;2023-05-10T02:51:13;54.08;;;38.90;;
59474;SDS011;45288;51.136;16.928;2023-05-10T02:54:11;65.68;;;54.15;;
59474;SDS011;45288;51.136;16.928;2023-05-10T02:56:47;59.67;;;35.83;;
59474;SDS011;45288;51.136;16.928;2023-05-10T02:59:39;68.78;;;48.33;;
59474;SDS011;45288;51.136;16.928;2023-05-10T03:02:36;71.57;;;64.27;;
59474;SDS011;45288;51.136;16.928;2023-05-10T03:05:09;165.30;;;153.60;;
59474;SDS011;45288;51.136;16.928;2023-05-10T03:08:01;90.93;;;82.80;;
59474;SDS011;45288;51.136;16.928;2023-05-10T03:10:38;151.63;;;139.93;;
59474;SDS011;45288;51.136;16.928;2023-05-10T03:14:09;180.00;;;166.73;;
59474;SDS011;45288;51.136;16.928;2023-05-10T03:16:35;290.57;;;270.47;;
59474;SDS011;45288;51.136;16.928;2023-05-10T03:22:08;248.02;;;230.85;;
59474;SDS011;45288;51.136;16.928;2023-05-10T03:25:04;269.25;;;251.70;;
59474;SDS011;45288;51.136;16.928;2023-05-10T03:27:39;96.60;;;87.05;;
59474;SDS011;45288;51.136;16.928;2023-05-10T03:30:31;74.70;;;66.57;;
59474;SDS011;45288;51.136;16.928;2023-05-10T03:33:13;99.15;;;91.18;;
59474;SDS011;45288;51.136;16.928;2023-05-10T03:35:58;58.78;;;33.92;;
59474;SDS011;45288;51.136;16.928;2023-05-10T03:38:38;65.30;;;39.60;;
59474;SDS011;45288;51.136;16.928;2023-05-10T03:41:23;51.47;;;41.50;;
59474;SDS011;45288;51.136;16.928;2023-05-10T03:44:04;61.42;;;46.90;;
59474;SDS011;45288;51.136;16.928;2023-05-10T03:46:49;62.72;;;49.97;;
59474;SDS011;45288;51.136;16.928;2023-05-10T03:49:29;57.13;;;31.80;;
59474;SDS011;45288;51.136;16.928;2023-05-10T03:52:15;50.83;;;34.85;;
59474;SDS011;45288;51.136;16.928;2023-05-10T03:54:54;197.40;;;183.70;;
59474;SDS011;45288;51.136;16.928;2023-05-10T03:57:40;210.90;;;195.18;;
59474;SDS011;45288;51.136;16.928;2023-05-10T04:00:26;48.90;;;23.70;;
59474;SDS011;45288;51.136;16.928;2023-05-10T04:03:19;43.05;;;15.25;;
59474;SDS011;45288;51.136;16.928;2023-05-10T04:06:01;46.72;;;13.98;;
59474;SDS011;45288;51.136;16.928;2023-05-10T04:08:56;50.00;;;14.68;;
59474;SDS011;45288;51.136;16.928;2023-05-10T04:11:31;45.78;;;13.13;;
59474;SDS011;45288;51.136;16.928;2023-05-10T04:14:23;44.75;;;13.75;;
59474;SDS011;45288;51.136;16.928;2023-05-10T04:16:56;41.70;;;23.83;;
59474;SDS011;45288;51.136;16.928;2023-05-10T04:19:48;52.65;;;26.23;;
59474;SDS011;45288;51.136;16.928;2023-05-10T04:22:21;51.22;;;24.70;;
59474;SDS011;45288;51.136;16.928;2023-05-10T04:25:14;51.42;;;21.55;;
59474;SDS011;45288;51.136;16.928;2023-05-10T04:27:47;52.88;;;22.77;;
59474;SDS011;45288;51.136;16.928;2023-05-10T04:30:39;52.05;;;23.17;;
59474;SDS011;45288;51.136;16.928;2023-05-10T04:33:12;43.45;;;22.35;;
59474;SDS011;45288;51.136;16.928;2023-05-10T04:36:05;51.15;;;27.08;;
59474;SDS011;45288;51.136;16.928;2023-05-10T04:38:37;51.65;;;26.45;;
59474;SDS011;45288;51.136;16.928;2023-05-10T04:41:29;52.10;;;32.28;;
59474;SDS011;45288;51.136;16.928;2023-05-10T04:44:02;52.65;;;31.98;;
59474;SDS011;45288;51.136;16.928;2023-05-10T04:46:55;145.18;;;134.38;;
59474;SDS011;45288;51.136;16.928;2023-05-10T04:49:27;153.90;;;143.27;;
59474;SDS011;45288;51.136;16.928;2023-05-10T04:52:19;127.88;;;118.18;;
59474;SDS011;45288;51.136;16.928;2023-05-10T04:54:52;129.90;;;120.95;;
59474;SDS011;45288;51.136;16.928;2023-05-10T04:57:44;286.73;;;268.00;;
59474;SDS011;45288;51.136;16.928;2023-05-10T05:00:17;559.10;;;520.97;;
59474;SDS011;45288;51.136;16.928;2023-05-10T05:03:10;317.70;;;296.90;;
59474;SDS011;45288;51.136;16.928;2023-05-10T05:05:43;105.63;;;96.50;;
59474;SDS011;45288;51.136;16.928;2023-05-10T05:08:36;96.35;;;87.53;;
59474;SDS011;45288;51.136;16.928;2023-05-10T05:11:08;280.13;;;261.08;;
59474;SDS011;45288;51.136;16.928;2023-05-10T05:14:00;252.85;;;236.20;;
59474;SDS011;45288;51.136;16.928;2023-05-10T05:16:33;172.10;;;159.70;;
59474;SDS011;45288;51.136;16.928;2023-05-10T05:19:25;342.00;;;318.25;;
59474;SDS011;45288;51.136;16.928;2023-05-10T05:21:58;289.02;;;269.55;;
59474;SDS011;45288;51.136;16.928;2023-05-10T05:24:50;65.03;;;50.57;;
59474;SDS011;45288;51.136;16.928;2023-05-10T05:27:23;404.73;;;376.33;;
59474;SDS011;45288;51.136;16.928;2023-05-10T05:30:17;57.13;;;45.35;;
59474;SDS011;45288;51.136;16.928;2023-05-10T05:32:49;55.92;;;27.25;;
59474;SDS011;45288;51.136;16.928;2023-05-10T05:35:42;190.13;;;176.38;;
59474;SDS011;45288;51.136;16.928;2023-05-10T05:38:26;139.98;;;128.63;;
59474;SDS011;45288;51.136;16.928;2023-05-10T05:41:12;126.57;;;116.50;;
59474;SDS011;45288;51.136;16.928;2023-05-10T05:43:51;73.90;;;64.37;;
59474;SDS011;45288;51.136;16.928;2023-05-10T05:48:55;47.20;;;31.00;;
59474;SDS011;45288;51.136;16.928;2023-05-10T05:51:21;57.05;;;33.70;;
59474;SDS011;45288;51.136;16.928;2023-05-10T05:53:46;63.73;;;57.20;;
59474;SDS011;45288;51.136;16.928;2023-05-10T05:56:12;58.83;;;49.50;;
59474;SDS011;45288;51.136;16.928;2023-05-10T05:58:37;55.60;;;17.67;;
59474;SDS011;45288;51.136;16.928;2023-05-10T06:01:03;46.30;;;17.43;;
59474;SDS011;45288;51.136;16.928;2023-05-10T06:03:29;59.25;;;53.17;;
59474;SDS011;45288;51.136;16.928;2023-05-10T06:05:54;46.20;;;35.97;;
59474;SDS011;45288;51.136;16.928;2023-05-10T06:08:20;57.17;;;51.13;;
59474;SDS011;45288;51.136;16.928;2023-05-10T06:10:45;33.33;;;14.90;;
59474;SDS011;45288;51.136;16.928;2023-05-10T06:13:11;50.60;;;15.27;;
59474;SDS011;45288;51.136;16.928;2023-05-10T06:15:37;43.88;;;16.88;;
59474;SDS011;45288;51.136;16.928;2023-05-10T06:18:03;52.13;;;27.75;;
59474;SDS011;45288;51.136;16.928;2023-05-10T06:20:28;60.73;;;43.07;;
59474;SDS011;45288;51.136;16.928;2023-05-10T06:22:54;321.05;;;298.48;;
59474;SDS011;45288;51.136;16.928;2023-05-10T06:25:20;185.53;;;171.70;;
59474;SDS011;45288;51.136;16.928;2023-05-10T06:27:46;93.47;;;85.38;;
59474;SDS011;45288;51.136;16.928;2023-05-10T06:30:12;63.33;;;47.00;;
59474;SDS011;45288;51.136;16.928;2023-05-10T06:32:38;226.93;;;210.27;;
59474;SDS011;45288;51.136;16.928;2023-05-10T06:35:04;316.45;;;295.02;;
59474;SDS011;45288;51.136;16.928;2023-05-10T06:37:30;247.40;;;230.57;;
59474;SDS011;45288;51.136;16.928;2023-05-10T06:39:55;90.93;;;83.30;;
59474;SDS011;45288;51.136;16.928;2023-05-10T06:42:21;124.23;;;113.57;;
59474;SDS011;45288;51.136;16.928;2023-05-10T06:44:47;182.25;;;168.88;;
59474;SDS011;45288;51.136;16.928;2023-05-10T06:47:12;157.10;;;144.47;;
59474;SDS011;45288;51.136;16.928;2023-05-10T06:49:38;90.32;;;82.57;;
59474;SDS011;45288;51.136;16.928;2023-05-10T06:52:04;76.47;;;68.67;;
59474;SDS011;45288;51.136;16.928;2023-05-10T06:54:29;64.00;;;57.42;;
59474;SDS011;45288;51.136;16.928;2023-05-10T06:56:55;49.60;;;30.23;;
59474;SDS011;45288;51.136;16.928;2023-05-10T06:59:20;60.63;;;51.50;;
59474;SDS011;45288;51.136;16.928;2023-05-10T07:01:47;39.45;;;26.23;;
59474;SDS011;45288;51.136;16.928;2023-05-10T07:04:12;46.80;;;27.38;;
59474;SDS011;45288;51.136;16.928;2023-05-10T07:06:38;45.40;;;24.70;;
59474;SDS011;45288;51.136;16.928;2023-05-10T07:09:04;58.23;;;43.93;;
59474;SDS011;45288;51.136;16.928;2023-05-10T07:11:30;50.80;;;45.58;;
59474;SDS011;45288;51.136;16.928;2023-05-10T07:13:55;122.37;;;113.60;;
59474;SDS011;45288;51.136;16.928;2023-05-10T07:16:21;165.13;;;152.43;;
59474;SDS011;45288;51.136;16.928;2023-05-10T07:18:47;311.67;;;289.20;;
59474;SDS011;45288;51.136;16.928;2023-05-10T07:21:12;391.73;;;363.10;;
59474;SDS011;45288;51.136;16.928;2023-05-10T07:23:38;627.60;;;582.20;;
59474;SDS011;45288;51.136;16.928;2023-05-10T07:26:03;204.90;;;189.73;;
59474;SDS011;45288;51.136;16.928;2023-05-10T07:28:29;154.60;;;143.25;;
59474;SDS011;45288;51.136;16.928;2023-05-10T07:30:55;137.47;;;128.00;;
59474;SDS011;45288;51.136;16.928;2023-05-10T07:33:21;157.35;;;146.05;;
59474;SDS011;45288;51.136;16.928;2023-05-10T07:35:46;561.67;;;520.40;;
59474;SDS011;45288;51.136;16.928;2023-05-10T07:38:12;594.15;;;550.50;;
59474;SDS011;45288;51.136;16.928;2023-05-10T07:40:38;408.80;;;379.60;;
59474;SDS011;45288;51.136;16.928;2023-05-10T07:43:04;251.77;;;234.03;;
59474;SDS011;45288;51.136;16.928;2023-05-10T07:45:30;348.77;;;323.40;;
59474;SDS011;45288;51.136;16.928;2023-05-10T07:47:55;265.97;;;247.43;;
59474;SDS011;45288;51.136;16.928;2023-05-10T07:50:21;197.40;;;183.25;;
59474;SDS011;45288;51.136;16.928;2023-05-10T07:52:47;294.77;;;273.40;;
59474;SDS011;45288;51.136;16.928;2023-05-10T07:55:13;218.15;;;201.40;;
59474;SDS011;45288;51.136;16.928;2023-05-10T07:57:38;186.40;;;172.10;;
59474;SDS011;45288;51.136;16.928;2023-05-10T08:00:05;142.00;;;130.67;;
59474;SDS011;45288;51.136;16.928;2023-05-10T08:02:38;128.27;;;118.22;;
59474;SDS011;45288;51.136;16.928;2023-05-10T08:05:04;161.37;;;149.03;;
59474;SDS011;45288;51.136;16.928;2023-05-10T08:07:30;154.85;;;143.48;;
59474;SDS011;45288;51.136;16.928;2023-05-10T08:09:56;150.23;;;139.90;;
59474;SDS011;45288;51.136;16.928;2023-05-10T08:12:22;170.20;;;158.40;;
59474;SDS011;45288;51.136;16.928;2023-05-10T08:14:47;246.02;;;228.68;;
59474;SDS011;45288;51.136;16.928;2023-05-10T08:17:13;177.20;;;163.70;;
59474;SDS011;45288;51.136;16.928;2023-05-10T08:19:38;142.27;;;131.57;;
59474;SDS011;45288;51.136;16.928;2023-05-10T08:22:04;101.53;;;92.93;;
59474;SDS011;45288;51.136;16.928;2023-05-10T08:24:30;103.10;;;94.85;;
59474;SDS011;45288;51.136;16.928;2023-05-10T08:26:56;83.03;;;75.37;;
59474;SDS011;45288;51.136;16.928;2023-05-10T08:29:22;57.63;;;51.03;;
59474;SDS011;45288;51.136;16.928;2023-05-10T08:31:48;54.70;;;46.63;;
59474;SDS011;45288;51.136;16.928;2023-05-10T08:34:13;49.87;;;44.77;;
59474;SDS011;45288;51.136;16.928;2023-05-10T08:36:39;42.42;;;38.15;;
59474;SDS011;45288;51.136;16.928;2023-05-10T08:39:05;67.67;;;61.73;;
59474;SDS011;45288;51.136;16.928;2023-05-10T08:41:32;76.80;;;70.03;;
59474;SDS011;45288;51.136;16.928;2023-05-10T08:43:58;94.63;;;87.55;;
59474;SDS011;45288;51.136;16.928;2023-05-10T08:46:25;79.45;;;71.80;;
59474;SDS011;45288;51.136;16.928;2023-05-10T08:48:52;60.92;;;55.22;;
59474;SDS011;45288;51.136;16.928;2023-05-10T08:53:43;84.28;;;76.45;;
59474;SDS011;45288;51.136;16.928;2023-05-10T08:56:10;73.20;;;65.90;;
59474;SDS011;45288;51.136;16.928;2023-05-10T08:58:36;80.20;;;73.40;;
59474;SDS011;45288;51.136;16.928;2023-05-10T09:01:02;167.98;;;154.98;;
59474;SDS011;45288;51.136;16.928;2023-05-10T09:03:27;115.10;;;106.88;;
59474;SDS011;45288;51.136;16.928;2023-05-10T09:05:53;155.85;;;144.35;;
59474;SDS011;45288;51.136;16.928;2023-05-10T09:08:21;267.35;;;247.43;;
59474;SDS011;45288;51.136;16.928;2023-05-10T09:10:50;145.88;;;134.48;;
59474;SDS011;45288;51.136;16.928;2023-05-10T09:13:16;137.85;;;127.47;;
59474;SDS011;45288;51.136;16.928;2023-05-10T09:15:43;271.37;;;250.87;;
59474;SDS011;45288;51.136;16.928;2023-05-10T09:18:09;273.05;;;253.30;;
59474;SDS011;45288;51.136;16.928;2023-05-10T09:20:34;193.43;;;179.13;;
59474;SDS011;45288;51.136;16.928;2023-05-10T09:23:00;97.05;;;88.28;;
59474;SDS011;45288;51.136;16.928;2023-05-10T09:25:26;96.72;;;88.03;;
59474;SDS011;45288;51.136;16.928;2023-05-10T09:27:52;126.28;;;117.45;;
59474;SDS011;45288;51.136;16.928;2023-05-10T09:30:23;159.23;;;147.80;;
59474;SDS011;45288;51.136;16.928;2023-05-10T09:32:49;156.35;;;145.57;;
59474;SDS011;45288;51.136;16.928;2023-05-10T09:35:19;283.45;;;262.77;;
59474;SDS011;45288;51.136;16.928;2023-05-10T09:37:46;185.77;;;171.82;;
59474;SDS011;45288;51.136;16.928;2023-05-10T09:40:17;119.53;;;110.43;;
59474;SDS011;45288;51.136;16.928;2023-05-10T09:42:50;115.32;;;106.32;;
59474;SDS011;45288;51.136;16.928;2023-05-10T09:45:16;127.40;;;117.05;;
59474;SDS011;45288;51.136;16.928;2023-05-10T09:47:41;145.07;;;133.77;;
59474;SDS011;45288;51.136;16.928;2023-05-10T09:50:07;125.30;;;114.87;;
59474;SDS011;45288;51.136;16.928;2023-05-10T09:52:52;126.75;;;116.72;;
59474;SDS011;45288;51.136;16.928;2023-05-10T09:55:19;138.80;;;127.65;;
59474;SDS011;45288;51.136;16.928;2023-05-10T09:57:46;178.93;;;165.15;;
59474;SDS011;45288;51.136;16.928;2023-05-10T10:00:16;197.77;;;181.95;;
59474;SDS011;45288;51.136;16.928;2023-05-10T10:02:42;473.20;;;435.43;;
59474;SDS011;45288;51.136;16.928;2023-05-10T10:05:10;218.30;;;202.00;;
59474;SDS011;45288;51.136;16.928;2023-05-10T10:07:36;169.07;;;155.98;;
59474;SDS011;45288;51.136;16.928;2023-05-10T10:10:03;313.48;;;288.58;;
59474;SDS011;45288;51.136;16.928;2023-05-10T10:12:30;362.73;;;334.42;;
59474;SDS011;45288;51.136;16.928;2023-05-10T10:14:56;156.48;;;144.77;;
59474;SDS011;45288;51.136;16.928;2023-05-10T10:17:22;193.23;;;178.63;;
59474;SDS011;45288;51.136;16.928;2023-05-10T10:19:50;198.07;;;182.85;;
59474;SDS011;45288;51.136;16.928;2023-05-10T10:22:16;178.75;;;164.25;;
59474;SDS011;45288;51.136;16.928;2023-05-10T10:24:42;191.80;;;176.97;;
59474;SDS011;45288;51.136;16.928;2023-05-10T10:27:11;54.60;;;37.83;;
59474;SDS011;45288;51.136;16.928;2023-05-10T10:29:39;45.40;;;30.45;;
59474;SDS011;45288;51.136;16.928;2023-05-10T10:32:12;41.40;;;28.55;;
59474;SDS011;45288;51.136;16.928;2023-05-10T10:34:42;46.25;;;29.30;;
59474;SDS011;45288;51.136;16.928;2023-05-10T10:37:09;46.05;;;26.30;;
59474;SDS011;45288;51.136;16.928;2023-05-10T10:39:35;41.27;;;23.27;;
59474;SDS011;45288;51.136;16.928;2023-05-10T10:42:02;49.55;;;24.45;;
59474;SDS011;45288;51.136;16.928;2023-05-10T10:49:26;48.50;;;40.70;;
59474;SDS011;45288;51.136;16.928;2023-05-10T10:54:36;53.17;;;44.45;;
59474;SDS011;45288;51.136;16.928;2023-05-10T10:57:09;56.72;;;48.47;;
59474;SDS011;45288;51.136;16.928;2023-05-10T10:59:35;57.13;;;50.55;;
59474;SDS011;45288;51.136;16.928;2023-05-10T11:02:01;62.75;;;56.38;;
59474;SDS011;45288;51.136;16.928;2023-05-10T11:04:28;83.70;;;74.97;;
59474;SDS011;45288;51.136;16.928;2023-05-10T11:07:04;124.15;;;113.75;;
59474;SDS011;45288;51.136;16.928;2023-05-10T11:09:39;225.15;;;206.55;;
59474;SDS011;45288;51.136;16.928;2023-05-10T11:12:07;161.90;;;149.07;;
59474;SDS011;45288;51.136;16.928;2023-05-10T11:14:33;80.35;;;73.25;;
59474;SDS011;45288;51.136;16.928;2023-05-10T11:16:59;99.00;;;90.17;;
59474;SDS011;45288;51.136;16.928;2023-05-10T11:19:29;234.38;;;215.43;;
59474;SDS011;45288;51.136;16.928;2023-05-10T11:22:28;189.65;;;174.77;;
59474;SDS011;45288;51.136;16.928;2023-05-10T11:24:57;177.63;;;163.57;;
59474;SDS011;45288;51.136;16.928;2023-05-10T11:27:26;121.40;;;111.30;;
59474;SDS011;45288;51.136;16.928;2023-05-10T11:29:52;90.10;;;82.47;;
59474;SDS011;45288;51.136;16.928;2023-05-10T11:32:19;64.65;;;57.80;;
59474;SDS011;45288;51.136;16.928;2023-05-10T11:34:46;61.27;;;54.67;;
59474;SDS011;45288;51.136;16.928;2023-05-10T11:37:13;112.53;;;102.88;;
59474;SDS011;45288;51.136;16.928;2023-05-10T11:39:38;148.00;;;136.02;;
59474;SDS011;45288;51.136;16.928;2023-05-10T11:42:04;179.93;;;165.30;;
59474;SDS011;45288;51.136;16.928;2023-05-10T11:44:30;113.13;;;104.00;;
59474;SDS011;45288;51.136;16.928;2023-05-10T11:46:58;109.30;;;100.55;;
59474;SDS011;45288;51.136;16.928;2023-05-10T11:49:24;106.18;;;96.78;;
59474;SDS011;45288;51.136;16.928;2023-05-10T11:51:51;113.28;;;103.90;;
59474;SDS011;45288;51.136;16.928;2023-05-10T11:54:16;162.33;;;148.90;;
59474;SDS011;45288;51.136;16.928;2023-05-10T11:56:42;168.13;;;154.95;;
59474;SDS011;45288;51.136;16.928;2023-05-10T11:59:08;181.13;;;166.80;;
59474;SDS011;45288;51.136;16.928;2023-05-10T12:01:34;148.88;;;137.02;;
59474;SDS011;45288;51.136;16.928;2023-05-10T12:04:00;161.07;;;148.05;;
59474;SDS011;45288;51.136;16.928;2023-05-10T12:06:29;199.20;;;183.23;;
59474;SDS011;45288;51.136;16.928;2023-05-10T12:08:56;127.95;;;118.07;;
59474;SDS011;45288;51.136;16.928;2023-05-10T12:11:26;163.02;;;149.40;;
59474;SDS011;45288;51.136;16.928;2023-05-10T12:13:54;288.87;;;266.27;;
59474;SDS011;45288;51.136;16.928;2023-05-10T12:16:21;290.85;;;268.33;;
59474;SDS011;45288;51.136;16.928;2023-05-10T12:18:55;209.50;;;193.10;;
59474;SDS011;45288;51.136;16.928;2023-05-10T12:21:23;162.80;;;150.77;;
59474;SDS011;45288;51.136;16.928;2023-05-10T12:23:52;285.60;;;264.08;;
59474;SDS011;45288;51.136;16.928;2023-05-10T12:26:17;384.92;;;354.65;;
59474;SDS011;45288;51.136;16.928;2023-05-10T12:28:43;424.65;;;391.73;;
59474;SDS011;45288;51.136;16.928;2023-05-10T12:31:11;338.90;;;311.80;;
59474;SDS011;45288;51.136;16.928;2023-05-10T12:33:38;236.73;;;218.65;;
59474;SDS011;45288;51.136;16.928;2023-05-10T12:36:04;237.38;;;218.80;;
59474;SDS011;45288;51.136;16.928;2023-05-10T12:38:35;586.58;;;538.95;;
59474;SDS011;45288;51.136;16.928;2023-05-10T12:41:02;298.48;;;274.83;;
59474;SDS011;45288;51.136;16.928;2023-05-10T12:43:28;406.88;;;373.63;;
59474;SDS011;45288;51.136;16.928;2023-05-10T12:45:54;121.37;;;111.30;;
59474;SDS011;45288;51.136;16.928;2023-05-10T12:48:20;67.03;;;58.30;;
59474;SDS011;45288;51.136;16.928;2023-05-10T12:50:45;45.70;;;39.90;;
59474;SDS011;45288;51.136;16.928;2023-05-10T12:53:13;49.47;;;40.25;;
59474;SDS011;45288;51.136;16.928;2023-05-10T12:55:39;35.50;;;26.25;;
59474;SDS011;45288;51.136;16.928;2023-05-10T12:58:05;46.60;;;34.70;;
59474;SDS011;45288;51.136;16.928;2023-05-10T13:00:30;42.27;;;34.80;;
59474;SDS011;45288;51.136;16.928;2023-05-10T13:02:56;44.47;;;34.10;;
59474;SDS011;45288;51.136;16.928;2023-05-10T13:05:22;38.67;;;31.60;;
59474;SDS011;45288;51.136;16.928;2023-05-10T13:07:48;38.30;;;24.67;;
59474;SDS011;45288;51.136;16.928;2023-05-10T13:10:14;41.70;;;23.03;;
59474;SDS011;45288;51.136;16.928;2023-05-10T13:12:39;38.13;;;25.23;;
59474;SDS011;45288;51.136;16.928;2023-05-10T13:15:05;46.10;;;26.20;;
59474;SDS011;45288;51.136;16.928;2023-05-10T13:17:32;34.45;;;24.67;;
59474;SDS011;45288;51.136;16.928;2023-05-10T13:19:57;35.83;;;25.90;;
59474;SDS011;45288;51.136;16.928;2023-05-10T13:22:23;37.17;;;22.80;;
59474;SDS011;45288;51.136;16.928;2023-05-10T13:24:49;33.67;;;20.73;;
59474;SDS011;45288;51.136;16.928;2023-05-10T13:27:14;41.58;;;21.50;;
59474;SDS011;45288;51.136;16.928;2023-05-10T13:29:40;46.17;;;20.63;;
59474;SDS011;45288;51.136;16.928;2023-05-10T13:32:06;37.10;;;21.83;;
59474;SDS011;45288;51.136;16.928;2023-05-10T13:34:31;35.38;;;31.70;;
59474;SDS011;45288;51.136;16.928;2023-05-10T13:36:57;39.60;;;35.25;;
59474;SDS011;45288;51.136;16.928;2023-05-10T13:39:23;40.43;;;34.77;;
59474;SDS011;45288;51.136;16.928;2023-05-10T13:41:48;167.05;;;154.77;;
59474;SDS011;45288;51.136;16.928;2023-05-10T13:44:14;273.33;;;252.65;;
59474;SDS011;45288;51.136;16.928;2023-05-10T13:46:41;303.13;;;280.35;;
59474;SDS011;45288;51.136;16.928;2023-05-10T13:49:08;150.77;;;139.83;;
59474;SDS011;45288;51.136;16.928;2023-05-10T13:51:34;129.13;;;119.53;;
59474;SDS011;45288;51.136;16.928;2023-05-10T13:54:00;473.70;;;435.55;;
59474;SDS011;45288;51.136;16.928;2023-05-10T13:56:25;258.45;;;238.88;;
59474;SDS011;45288;51.136;16.928;2023-05-10T13:58:51;189.27;;;174.63;;
59474;SDS011;45288;51.136;16.928;2023-05-10T14:01:17;169.32;;;156.10;;
59474;SDS011;45288;51.136;16.928;2023-05-10T14:03:43;160.40;;;148.50;;
59474;SDS011;45288;51.136;16.928;2023-05-10T14:06:09;144.38;;;134.15;;
59474;SDS011;45288;51.136;16.928;2023-05-10T14:08:35;156.55;;;145.30;;
59474;SDS011;45288;51.136;16.928;2023-05-10T14:11:00;128.50;;;118.95;;
59474;SDS011;45288;51.136;16.928;2023-05-10T14:13:26;127.03;;;117.47;;
59474;SDS011;45288;51.136;16.928;2023-05-10T14:15:53;126.47;;;117.33;;
59474;SDS011;45288;51.136;16.928;2023-05-10T14:18:19;111.25;;;103.30;;
59474;SDS011;45288;51.136;16.928;2023-05-10T14:20:44;100.43;;;93.05;;
59474;SDS011;45288;51.136;16.928;2023-05-10T14:23:10;91.13;;;83.43;;
59474;SDS011;45288;51.136;16.928;2023-05-10T14:25:36;93.35;;;86.88;;
59474;SDS011;45288;51.136;16.928;2023-05-10T14:28:03;96.63;;;89.15;;
59474;SDS011;45288;51.136;16.928;2023-05-10T14:30:29;99.75;;;92.03;;
59474;SDS011;45288;51.136;16.928;2023-05-10T14:32:55;97.20;;;89.57;;
59474;SDS011;45288;51.136;16.928;2023-05-10T14:35:20;109.43;;;101.38;;
59474;SDS011;45288;51.136;16.928;2023-05-10T14:37:47;247.25;;;228.85;;
59474;SDS011;45288;51.136;16.928;2023-05-10T14:40:12;37.13;;;32.60;;
59474;SDS011;45288;51.136;16.928;2023-05-10T14:42:39;36.03;;;29.02;;
59474;SDS011;45288;51.136;16.928;2023-05-10T14:45:05;34.97;;;26.05;;
59474;SDS011;45288;51.136;16.928;2023-05-10T14:47:31;36.33;;;24.10;;